sensor_id;sensor_type;location;lat;lon;timestamp;P1;durP1;ratioP1;P2;durP2;ratioP2
9392;SDS011;4736;52.508;13.422;2024-01-30T00:00:49;13.27;;;10.20;;
9392;SDS011;4736;52.508;13.422;2024-01-30T00:03:52;12.37;;;10.83;;
9392;SDS011;4736;52.508;13.422;2024-01-30T00:06:55;11.93;;;10.73;;
9392;SDS011;4736;52.508;13.422;2024-01-30T00:09:58;12.57;;;10.10;;
9392;SDS011;4736;52.508;13.422;2024-01-30T00:13:02;11.53;;;10.30;;
9392;SDS011;4736;52.508;13.422;2024-01-30T00:16:06;10.93;;;9.93;;
9392;SDS011;4736;52.508;13.422;2024-01-30T00:19:10;12.57;;;9.93;;
9392;SDS011;4736;52.508;13.422;2024-01-30T00:22:14;11.63;;;10.50;;
9392;SDS011;4736;52.508;13.422;2024-01-30T00:25:17;12.90;;;9.93;;
9392;SDS011;4736;52.508;13.422;2024-01-30T00:28:20;14.17;;;10.20;;
9392;SDS011;4736;52.508;13.422;2024-01-30T00:31:25;11.00;;;9.90;;
9392;SDS011;4736;52.508;13.422;2024-01-30T00:34:28;10.93;;;9.80;;
9392;SDS011;4736;52.508;13.422;2024-01-30T00:37:32;12.43;;;10.70;;
9392;SDS011;4736;52.508;13.422;2024-01-30T00:40:35;13.03;;;10.97;;
9392;SDS011;4736;52.508;13.422;2024-01-30T00:43:38;12.60;;;11.20;;
9392;SDS011;4736;52.508;13.422;2024-01-30T00:46:42;13.47;;;12.07;;
9392;SDS011;4736;52.508;13.422;2024-01-30T00:49:45;14.00;;;12.37;;
9392;SDS011;4736;52.508;13.422;2024-01-30T00:52:49;14.13;;;11.80;;
9392;SDS011;4736;52.508;13.422;2024-01-30T00:55:52;15.67;;;12.07;;
9392;SDS011;4736;52.508;13.422;2024-01-30T00:58:55;14.03;;;12.30;;
9392;SDS011;4736;52.508;13.422;2024-01-30T01:02:00;14.20;;;11.77;;
9392;SDS011;4736;52.508;13.422;2024-01-30T01:05:03;12.80;;;11.47;;
9392;SDS011;4736;52.508;13.422;2024-01-30T01:08:07;12.97;;;11.60;;
9392;SDS011;4736;52.508;13.422;2024-01-30T01:11:10;14.57;;;11.30;;
9392;SDS011;4736;52.508;13.422;2024-01-30T01:14:13;15.63;;;12.57;;
9392;SDS011;4736;52.508;13.422;2024-01-30T01:17:18;13.23;;;11.70;;
9392;SDS011;4736;52.508;13.422;2024-01-30T01:20:21;12.27;;;11.00;;
9392;SDS011;4736;52.508;13.422;2024-01-30T01:23:24;12.47;;;11.03;;
9392;SDS011;4736;52.508;13.422;2024-01-30T01:26:28;11.40;;;10.30;;
9392;SDS011;4736;52.508;13.422;2024-01-30T01:29:31;14.10;;;11.40;;
9392;SDS011;4736;52.508;13.422;2024-01-30T01:32:36;12.23;;;10.67;;
9392;SDS011;4736;52.508;13.422;2024-01-30T01:35:39;12.20;;;11.10;;
9392;SDS011;4736;52.508;13.422;2024-01-30T01:38:43;11.30;;;10.07;;
9392;SDS011;4736;52.508;13.422;2024-01-30T01:41:46;11.63;;;10.47;;
9392;SDS011;4736;52.508;13.422;2024-01-30T01:44:50;11.33;;;10.33;;
9392;SDS011;4736;52.508;13.422;2024-01-30T01:47:54;12.13;;;11.03;;
9392;SDS011;4736;52.508;13.422;2024-01-30T01:50:58;12.20;;;10.00;;
9392;SDS011;4736;52.508;13.422;2024-01-30T01:54:03;11.87;;;10.67;;
9392;SDS011;4736;52.508;13.422;2024-01-30T01:57:07;12.57;;;10.73;;
9392;SDS011;4736;52.508;13.422;2024-01-30T02:00:10;11.43;;;10.33;;
9392;SDS011;4736;52.508;13.422;2024-01-30T02:03:16;11.67;;;10.47;;
9392;SDS011;4736;52.508;13.422;2024-01-30T02:06:23;11.50;;;10.40;;
9392;SDS011;4736;52.508;13.422;2024-01-30T02:09:26;12.93;;;11.50;;
9392;SDS011;4736;52.508;13.422;2024-01-30T02:12:29;11.87;;;10.70;;
9392;SDS011;4736;52.508;13.422;2024-01-30T02:15:32;11.27;;;10.20;;
9392;SDS011;4736;52.508;13.422;2024-01-30T02:18:37;11.40;;;10.27;;
9392;SDS011;4736;52.508;13.422;2024-01-30T02:21:46;11.83;;;10.73;;
9392;SDS011;4736;52.508;13.422;2024-01-30T02:24:49;12.60;;;11.33;;
9392;SDS011;4736;52.508;13.422;2024-01-30T02:27:52;12.90;;;11.67;;
9392;SDS011;4736;52.508;13.422;2024-01-30T02:30:56;11.83;;;10.00;;
9392;SDS011;4736;52.508;13.422;2024-01-30T02:33:59;11.63;;;10.47;;
9392;SDS011;4736;52.508;13.422;2024-01-30T02:37:05;14.63;;;11.70;;
9392;SDS011;4736;52.508;13.422;2024-01-30T02:40:08;14.30;;;11.80;;
9392;SDS011;4736;52.508;13.422;2024-01-30T02:43:11;12.70;;;11.47;;
9392;SDS011;4736;52.508;13.422;2024-01-30T02:46:15;13.57;;;12.17;;
9392;SDS011;4736;52.508;13.422;2024-01-30T02:49:18;13.23;;;11.83;;
9392;SDS011;4736;52.508;13.422;2024-01-30T02:52:23;12.73;;;11.53;;
9392;SDS011;4736;52.508;13.422;2024-01-30T02:55:26;13.47;;;11.60;;
9392;SDS011;4736;52.508;13.422;2024-01-30T02:58:30;13.03;;;11.73;;
9392;SDS011;4736;52.508;13.422;2024-01-30T03:01:33;12.43;;;11.23;;
9392;SDS011;4736;52.508;13.422;2024-01-30T03:04:44;12.03;;;10.73;;
9392;SDS011;4736;52.508;13.422;2024-01-30T03:07:49;14.30;;;11.53;;
9392;SDS011;4736;52.508;13.422;2024-01-30T03:10:52;12.80;;;11.47;;
9392;SDS011;4736;52.508;13.422;2024-01-30T03:13:55;11.37;;;10.30;;
9392;SDS011;4736;52.508;13.422;2024-01-30T03:16:59;12.00;;;10.67;;
9392;SDS011;4736;52.508;13.422;2024-01-30T03:20:02;12.33;;;11.13;;
9392;SDS011;4736;52.508;13.422;2024-01-30T03:23:09;12.40;;;11.20;;
9392;SDS011;4736;52.508;13.422;2024-01-30T03:26:12;12.57;;;11.37;;
9392;SDS011;4736;52.508;13.422;2024-01-30T03:29:16;12.30;;;11.00;;
9392;SDS011;4736;52.508;13.422;2024-01-30T03:32:20;13.93;;;11.93;;
9392;SDS011;4736;52.508;13.422;2024-01-30T03:35:23;13.40;;;11.23;;
9392;SDS011;4736;52.508;13.422;2024-01-30T03:38:28;13.80;;;11.23;;
9392;SDS011;4736;52.508;13.422;2024-01-30T03:41:31;11.70;;;10.60;;
9392;SDS011;4736;52.508;13.422;2024-01-30T03:44:34;12.40;;;11.30;;
9392;SDS011;4736;52.508;13.422;2024-01-30T03:47:37;11.23;;;10.23;;
9392;SDS011;4736;52.508;13.422;2024-01-30T03:50:42;14.73;;;10.93;;
9392;SDS011;4736;52.508;13.422;2024-01-30T03:53:46;12.83;;;11.53;;
9392;SDS011;4736;52.508;13.422;2024-01-30T03:56:49;12.00;;;10.67;;
9392;SDS011;4736;52.508;13.422;2024-01-30T03:59:53;13.93;;;10.20;;
9392;SDS011;4736;52.508;13.422;2024-01-30T04:02:56;12.63;;;11.33;;
9392;SDS011;4736;52.508;13.422;2024-01-30T04:05:59;12.33;;;11.03;;
9392;SDS011;4736;52.508;13.422;2024-01-30T04:09:04;12.47;;;11.17;;
9392;SDS011;4736;52.508;13.422;2024-01-30T04:12:07;12.77;;;11.57;;
9392;SDS011;4736;52.508;13.422;2024-01-30T04:15:10;15.57;;;11.03;;
9392;SDS011;4736;52.508;13.422;2024-01-30T04:18:15;12.83;;;10.87;;
9392;SDS011;4736;52.508;13.422;2024-01-30T04:21:18;13.37;;;11.03;;
9392;SDS011;4736;52.508;13.422;2024-01-30T04:24:25;14.17;;;12.13;;
9392;SDS011;4736;52.508;13.422;2024-01-30T04:27:28;12.47;;;11.17;;
9392;SDS011;4736;52.508;13.422;2024-01-30T04:30:31;11.57;;;10.37;;
9392;SDS011;4736;52.508;13.422;2024-01-30T04:33:34;12.63;;;11.33;;
9392;SDS011;4736;52.508;13.422;2024-01-30T04:36:37;13.97;;;11.50;;
9392;SDS011;4736;52.508;13.422;2024-01-30T04:39:42;14.83;;;11.37;;
9392;SDS011;4736;52.508;13.422;2024-01-30T04:42:45;15.50;;;11.93;;
9392;SDS011;4736;52.508;13.422;2024-01-30T04:45:49;13.93;;;10.93;;
9392;SDS011;4736;52.508;13.422;2024-01-30T04:48:52;11.17;;;10.20;;
9392;SDS011;4736;52.508;13.422;2024-01-30T04:51:55;11.70;;;10.50;;
9392;SDS011;4736;52.508;13.422;2024-01-30T04:55:00;11.90;;;10.70;;
9392;SDS011;4736;52.508;13.422;2024-01-30T04:58:03;11.27;;;10.17;;
9392;SDS011;4736;52.508;13.422;2024-01-30T05:01:07;12.07;;;10.27;;
9392;SDS011;4736;52.508;13.422;2024-01-30T05:04:10;14.13;;;10.57;;
9392;SDS011;4736;52.508;13.422;2024-01-30T05:07:17;11.57;;;10.40;;
9392;SDS011;4736;52.508;13.422;2024-01-30T05:10:22;11.87;;;10.67;;
9392;SDS011;4736;52.508;13.422;2024-01-30T05:13:25;12.47;;;10.53;;
9392;SDS011;4736;52.508;13.422;2024-01-30T05:16:29;10.70;;;9.80;;
9392;SDS011;4736;52.508;13.422;2024-01-30T05:19:32;12.40;;;11.10;;
9392;SDS011;4736;52.508;13.422;2024-01-30T05:22:35;11.23;;;9.97;;
9392;SDS011;4736;52.508;13.422;2024-01-30T05:25:40;11.90;;;9.50;;
9392;SDS011;4736;52.508;13.422;2024-01-30T05:28:44;14.00;;;11.30;;
9392;SDS011;4736;52.508;13.422;2024-01-30T05:31:47;13.03;;;10.97;;
9392;SDS011;4736;52.508;13.422;2024-01-30T05:34:50;12.77;;;11.57;;
9392;SDS011;4736;52.508;13.422;2024-01-30T05:37:53;12.53;;;10.73;;
9392;SDS011;4736;52.508;13.422;2024-01-30T05:40:58;12.03;;;10.83;;
9392;SDS011;4736;52.508;13.422;2024-01-30T05:44:01;12.40;;;11.10;;
9392;SDS011;4736;52.508;13.422;2024-01-30T05:47:04;11.77;;;10.57;;
9392;SDS011;4736;52.508;13.422;2024-01-30T05:50:08;10.70;;;9.80;;
9392;SDS011;4736;52.508;13.422;2024-01-30T05:53:11;11.53;;;10.53;;
9392;SDS011;4736;52.508;13.422;2024-01-30T05:56:17;12.47;;;11.10;;
9392;SDS011;4736;52.508;13.422;2024-01-30T05:59:20;11.47;;;10.37;;
9392;SDS011;4736;52.508;13.422;2024-01-30T06:02:23;11.70;;;10.50;;
9392;SDS011;4736;52.508;13.422;2024-01-30T06:05:26;12.30;;;10.97;;
9392;SDS011;4736;52.508;13.422;2024-01-30T06:08:30;12.90;;;11.33;;
9392;SDS011;4736;52.508;13.422;2024-01-30T06:11:34;12.27;;;10.77;;
9392;SDS011;4736;52.508;13.422;2024-01-30T06:14:37;13.57;;;11.37;;
9392;SDS011;4736;52.508;13.422;2024-01-30T06:17:42;14.77;;;11.37;;
9392;SDS011;4736;52.508;13.422;2024-01-30T06:20:45;13.87;;;12.27;;
9392;SDS011;4736;52.508;13.422;2024-01-30T06:23:49;13.27;;;11.87;;
9392;SDS011;4736;52.508;13.422;2024-01-30T06:26:53;16.93;;;11.93;;
9392;SDS011;4736;52.508;13.422;2024-01-30T06:29:56;15.47;;;12.80;;
9392;SDS011;4736;52.508;13.422;2024-01-30T06:33:00;12.73;;;11.43;;
9392;SDS011;4736;52.508;13.422;2024-01-30T06:36:03;14.37;;;12.47;;
9392;SDS011;4736;52.508;13.422;2024-01-30T06:39:08;13.30;;;11.70;;
9392;SDS011;4736;52.508;13.422;2024-01-30T06:42:13;13.67;;;12.20;;
9392;SDS011;4736;52.508;13.422;2024-01-30T06:45:17;15.10;;;13.50;;
9392;SDS011;4736;52.508;13.422;2024-01-30T06:48:20;18.17;;;13.80;;
9392;SDS011;4736;52.508;13.422;2024-01-30T06:51:23;14.00;;;12.00;;
9392;SDS011;4736;52.508;13.422;2024-01-30T06:54:26;15.83;;;12.97;;
9392;SDS011;4736;52.508;13.422;2024-01-30T06:57:31;17.40;;;13.53;;
9392;SDS011;4736;52.508;13.422;2024-01-30T07:00:34;13.27;;;12.07;;
9392;SDS011;4736;52.508;13.422;2024-01-30T07:03:37;15.07;;;12.40;;
9392;SDS011;4736;52.508;13.422;2024-01-30T07:06:41;13.10;;;11.80;;
9392;SDS011;4736;52.508;13.422;2024-01-30T07:09:44;14.07;;;12.67;;
9392;SDS011;4736;52.508;13.422;2024-01-30T07:12:50;17.80;;;13.83;;
9392;SDS011;4736;52.508;13.422;2024-01-30T07:15:53;17.60;;;13.67;;
9392;SDS011;4736;52.508;13.422;2024-01-30T07:18:57;16.13;;;14.03;;
9392;SDS011;4736;52.508;13.422;2024-01-30T07:22:00;17.10;;;13.70;;
9392;SDS011;4736;52.508;13.422;2024-01-30T07:25:05;15.97;;;14.27;;
9392;SDS011;4736;52.508;13.422;2024-01-30T07:28:10;21.13;;;14.70;;
9392;SDS011;4736;52.508;13.422;2024-01-30T07:31:16;18.27;;;15.47;;
9392;SDS011;4736;52.508;13.422;2024-01-30T07:34:22;22.70;;;13.40;;
9392;SDS011;4736;52.508;13.422;2024-01-30T07:37:25;15.70;;;13.50;;
9392;SDS011;4736;52.508;13.422;2024-01-30T07:40:30;19.67;;;14.33;;
9392;SDS011;4736;52.508;13.422;2024-01-30T07:43:36;19.13;;;13.67;;
9392;SDS011;4736;52.508;13.422;2024-01-30T07:46:40;16.30;;;13.40;;
9392;SDS011;4736;52.508;13.422;2024-01-30T07:49:43;17.67;;;14.10;;
9392;SDS011;4736;52.508;13.422;2024-01-30T07:52:47;21.53;;;13.23;;
9392;SDS011;4736;52.508;13.422;2024-01-30T07:55:52;14.57;;;12.77;;
9392;SDS011;4736;52.508;13.422;2024-01-30T07:58:57;20.03;;;13.60;;
9392;SDS011;4736;52.508;13.422;2024-01-30T08:02:00;15.67;;;12.93;;
9392;SDS011;4736;52.508;13.422;2024-01-30T08:05:03;19.50;;;14.83;;
9392;SDS011;4736;52.508;13.422;2024-01-30T08:08:07;20.17;;;13.77;;
9392;SDS011;4736;52.508;13.422;2024-01-30T08:11:11;16.60;;;13.33;;
9392;SDS011;4736;52.508;13.422;2024-01-30T08:14:16;18.93;;;14.97;;
9392;SDS011;4736;52.508;13.422;2024-01-30T08:17:21;19.43;;;15.70;;
9392;SDS011;4736;52.508;13.422;2024-01-30T08:20:24;23.33;;;15.90;;
9392;SDS011;4736;52.508;13.422;2024-01-30T08:23:27;19.03;;;16.53;;
9392;SDS011;4736;52.508;13.422;2024-01-30T08:26:31;20.13;;;16.37;;
9392;SDS011;4736;52.508;13.422;2024-01-30T08:29:35;21.33;;;16.30;;
9392;SDS011;4736;52.508;13.422;2024-01-30T08:32:39;17.30;;;14.80;;
9392;SDS011;4736;52.508;13.422;2024-01-30T08:35:42;20.77;;;14.83;;
9392;SDS011;4736;52.508;13.422;2024-01-30T08:38:45;17.27;;;15.27;;
9392;SDS011;4736;52.508;13.422;2024-01-30T08:41:48;18.53;;;14.53;;
9392;SDS011;4736;52.508;13.422;2024-01-30T08:44:53;15.63;;;13.80;;
9392;SDS011;4736;52.508;13.422;2024-01-30T08:47:57;21.47;;;14.47;;
9392;SDS011;4736;52.508;13.422;2024-01-30T08:51:00;18.23;;;14.13;;
9392;SDS011;4736;52.508;13.422;2024-01-30T08:54:03;20.83;;;14.70;;
9392;SDS011;4736;52.508;13.422;2024-01-30T08:57:06;23.83;;;15.73;;
9392;SDS011;4736;52.508;13.422;2024-01-30T09:00:12;21.50;;;14.37;;
9392;SDS011;4736;52.508;13.422;2024-01-30T09:03:16;19.57;;;14.23;;
9392;SDS011;4736;52.508;13.422;2024-01-30T09:06:20;15.17;;;12.50;;
9392;SDS011;4736;52.508;13.422;2024-01-30T09:09:23;14.70;;;11.80;;
9392;SDS011;4736;52.508;13.422;2024-01-30T09:12:26;16.57;;;13.50;;
9392;SDS011;4736;52.508;13.422;2024-01-30T09:15:32;17.67;;;12.30;;
9392;SDS011;4736;52.508;13.422;2024-01-30T09:18:35;14.33;;;11.47;;
9392;SDS011;4736;52.508;13.422;2024-01-30T09:21:38;13.80;;;11.93;;
9392;SDS011;4736;52.508;13.422;2024-01-30T09:24:41;15.30;;;12.47;;
9392;SDS011;4736;52.508;13.422;2024-01-30T09:27:44;13.23;;;11.87;;
9392;SDS011;4736;52.508;13.422;2024-01-30T09:30:50;14.23;;;12.07;;
9392;SDS011;4736;52.508;13.422;2024-01-30T09:33:53;14.50;;;12.00;;
9392;SDS011;4736;52.508;13.422;2024-01-30T09:36:56;14.30;;;12.73;;
9392;SDS011;4736;52.508;13.422;2024-01-30T09:40:00;14.07;;;11.97;;
9392;SDS011;4736;52.508;13.422;2024-01-30T09:43:04;13.63;;;12.03;;
9392;SDS011;4736;52.508;13.422;2024-01-30T09:46:10;15.20;;;11.70;;
9392;SDS011;4736;52.508;13.422;2024-01-30T09:49:16;13.67;;;11.67;;
9392;SDS011;4736;52.508;13.422;2024-01-30T09:52:21;13.90;;;11.67;;
9392;SDS011;4736;52.508;13.422;2024-01-30T09:55:24;16.57;;;12.70;;
9392;SDS011;4736;52.508;13.422;2024-01-30T09:58:28;14.23;;;12.67;;
9392;SDS011;4736;52.508;13.422;2024-01-30T10:01:33;13.27;;;11.67;;
9392;SDS011;4736;52.508;13.422;2024-01-30T10:04:37;15.67;;;11.40;;
9392;SDS011;4736;52.508;13.422;2024-01-30T10:07:49;14.40;;;11.60;;
9392;SDS011;4736;52.508;13.422;2024-01-30T10:10:55;16.63;;;11.43;;
9392;SDS011;4736;52.508;13.422;2024-01-30T10:14:00;14.57;;;11.27;;
9392;SDS011;4736;52.508;13.422;2024-01-30T10:17:05;15.07;;;10.57;;
9392;SDS011;4736;52.508;13.422;2024-01-30T10:20:21;12.87;;;11.57;;
9392;SDS011;4736;52.508;13.422;2024-01-30T10:23:28;13.73;;;11.30;;
9392;SDS011;4736;52.508;13.422;2024-01-30T10:26:37;14.20;;;11.53;;
9392;SDS011;4736;52.508;13.422;2024-01-30T10:29:40;11.07;;;9.93;;
9392;SDS011;4736;52.508;13.422;2024-01-30T10:32:45;12.80;;;10.53;;
9392;SDS011;4736;52.508;13.422;2024-01-30T10:35:49;11.27;;;10.17;;
9392;SDS011;4736;52.508;13.422;2024-01-30T10:38:53;12.10;;;9.70;;
9392;SDS011;4736;52.508;13.422;2024-01-30T10:42:03;11.07;;;9.87;;
9392;SDS011;4736;52.508;13.422;2024-01-30T10:45:07;10.97;;;9.93;;
9392;SDS011;4736;52.508;13.422;2024-01-30T10:48:15;11.67;;;9.77;;
9392;SDS011;4736;52.508;13.422;2024-01-30T10:51:24;10.70;;;9.70;;
9392;SDS011;4736;52.508;13.422;2024-01-30T10:54:30;11.70;;;10.57;;
9392;SDS011;4736;52.508;13.422;2024-01-30T10:57:37;11.50;;;9.30;;
9392;SDS011;4736;52.508;13.422;2024-01-30T11:00:40;11.13;;;9.97;;
9392;SDS011;4736;52.508;13.422;2024-01-30T11:03:45;10.90;;;9.53;;
9392;SDS011;4736;52.508;13.422;2024-01-30T11:06:49;13.83;;;9.67;;
9392;SDS011;4736;52.508;13.422;2024-01-30T11:09:53;10.23;;;9.23;;
9392;SDS011;4736;52.508;13.422;2024-01-30T11:13:09;12.87;;;10.20;;
9392;SDS011;4736;52.508;13.422;2024-01-30T11:16:41;11.67;;;9.63;;
9392;SDS011;4736;52.508;13.422;2024-01-30T11:20:00;11.23;;;10.03;;
9392;SDS011;4736;52.508;13.422;2024-01-30T11:23:04;11.33;;;10.13;;
9392;SDS011;4736;52.508;13.422;2024-01-30T11:26:10;12.90;;;10.23;;
9392;SDS011;4736;52.508;13.422;2024-01-30T11:29:13;11.47;;;10.37;;
9392;SDS011;4736;52.508;13.422;2024-01-30T11:32:21;11.93;;;10.73;;
9392;SDS011;4736;52.508;13.422;2024-01-30T11:35:27;11.27;;;10.13;;
9392;SDS011;4736;52.508;13.422;2024-01-30T11:38:32;12.47;;;11.27;;
9392;SDS011;4736;52.508;13.422;2024-01-30T11:41:36;11.73;;;10.53;;
9392;SDS011;4736;52.508;13.422;2024-01-30T11:44:40;12.87;;;9.80;;
9392;SDS011;4736;52.508;13.422;2024-01-30T11:47:47;14.33;;;11.03;;
9392;SDS011;4736;52.508;13.422;2024-01-30T11:50:52;18.20;;;11.77;;
9392;SDS011;4736;52.508;13.422;2024-01-30T11:53:55;11.83;;;10.60;;
9392;SDS011;4736;52.508;13.422;2024-01-30T11:56:58;15.80;;;10.30;;
9392;SDS011;4736;52.508;13.422;2024-01-30T12:00:01;13.37;;;10.03;;
9392;SDS011;4736;52.508;13.422;2024-01-30T12:03:09;12.23;;;10.40;;
9392;SDS011;4736;52.508;13.422;2024-01-30T12:06:16;11.17;;;10.07;;
9392;SDS011;4736;52.508;13.422;2024-01-30T12:09:19;11.53;;;10.43;;
9392;SDS011;4736;52.508;13.422;2024-01-30T12:12:23;13.87;;;10.97;;
9392;SDS011;4736;52.508;13.422;2024-01-30T12:15:27;10.47;;;9.47;;
9392;SDS011;4736;52.508;13.422;2024-01-30T12:18:31;11.50;;;9.87;;
9392;SDS011;4736;52.508;13.422;2024-01-30T12:21:37;12.67;;;10.63;;
9392;SDS011;4736;52.508;13.422;2024-01-30T12:24:40;12.20;;;10.30;;
9392;SDS011;4736;52.508;13.422;2024-01-30T12:27:44;12.10;;;11.00;;
9392;SDS011;4736;52.508;13.422;2024-01-30T12:30:54;13.20;;;10.37;;
9392;SDS011;4736;52.508;13.422;2024-01-30T12:33:59;13.37;;;11.43;;
9392;SDS011;4736;52.508;13.422;2024-01-30T12:37:04;11.80;;;10.47;;
9392;SDS011;4736;52.508;13.422;2024-01-30T12:40:10;12.47;;;10.80;;
9392;SDS011;4736;52.508;13.422;2024-01-30T12:43:16;10.67;;;9.77;;
9392;SDS011;4736;52.508;13.422;2024-01-30T12:46:33;11.00;;;9.97;;
9392;SDS011;4736;52.508;13.422;2024-01-30T12:49:37;11.90;;;10.57;;
9392;SDS011;4736;52.508;13.422;2024-01-30T12:52:42;11.27;;;10.10;;
9392;SDS011;4736;52.508;13.422;2024-01-30T12:55:50;11.90;;;9.73;;
9392;SDS011;4736;52.508;13.422;2024-01-30T12:58:54;11.20;;;10.20;;
9392;SDS011;4736;52.508;13.422;2024-01-30T13:01:58;11.13;;;10.13;;
9392;SDS011;4736;52.508;13.422;2024-01-30T13:05:02;11.60;;;10.40;;
9392;SDS011;4736;52.508;13.422;2024-01-30T13:08:07;13.47;;;11.37;;
9392;SDS011;4736;52.508;13.422;2024-01-30T13:11:10;12.97;;;10.37;;
9392;SDS011;4736;52.508;13.422;2024-01-30T13:14:21;11.43;;;10.33;;
9392;SDS011;4736;52.508;13.422;2024-01-30T13:17:24;15.43;;;10.00;;
9392;SDS011;4736;52.508;13.422;2024-01-30T13:20:27;11.50;;;10.27;;
9392;SDS011;4736;52.508;13.422;2024-01-30T13:23:32;11.43;;;10.40;;
9392;SDS011;4736;52.508;13.422;2024-01-30T13:26:36;13.10;;;10.27;;
9392;SDS011;4736;52.508;13.422;2024-01-30T13:29:39;13.17;;;10.50;;
9392;SDS011;4736;52.508;13.422;2024-01-30T13:32:42;11.23;;;10.33;;
9392;SDS011;4736;52.508;13.422;2024-01-30T13:35:47;10.73;;;9.63;;
9392;SDS011;4736;52.508;13.422;2024-01-30T13:38:52;13.07;;;9.87;;
9392;SDS011;4736;52.508;13.422;2024-01-30T13:41:55;14.77;;;9.93;;
9392;SDS011;4736;52.508;13.422;2024-01-30T13:44:58;11.80;;;10.60;;
9392;SDS011;4736;52.508;13.422;2024-01-30T13:48:02;13.47;;;10.37;;
9392;SDS011;4736;52.508;13.422;2024-01-30T13:51:05;11.37;;;10.07;;
9392;SDS011;4736;52.508;13.422;2024-01-30T13:54:10;13.60;;;10.10;;
9392;SDS011;4736;52.508;13.422;2024-01-30T13:57:13;10.50;;;9.47;;
9392;SDS011;4736;52.508;13.422;2024-01-30T14:00:16;12.03;;;10.20;;
9392;SDS011;4736;52.508;13.422;2024-01-30T14:03:20;12.80;;;9.83;;
9392;SDS011;4736;52.508;13.422;2024-01-30T14:06:23;11.10;;;10.10;;
9392;SDS011;4736;52.508;13.422;2024-01-30T14:09:27;13.87;;;10.63;;
9392;SDS011;4736;52.508;13.422;2024-01-30T14:12:31;18.10;;;14.27;;
9392;SDS011;4736;52.508;13.422;2024-01-30T14:15:34;12.43;;;11.20;;
9392;SDS011;4736;52.508;13.422;2024-01-30T14:18:37;12.23;;;11.03;;
9392;SDS011;4736;52.508;13.422;2024-01-30T14:21:40;16.07;;;11.47;;
9392;SDS011;4736;52.508;13.422;2024-01-30T14:24:46;11.07;;;10.07;;
9392;SDS011;4736;52.508;13.422;2024-01-30T14:27:49;15.60;;;11.13;;
9392;SDS011;4736;52.508;13.422;2024-01-30T14:30:53;12.27;;;10.43;;
9392;SDS011;4736;52.508;13.422;2024-01-30T14:33:56;15.80;;;11.00;;
9392;SDS011;4736;52.508;13.422;2024-01-30T14:36:59;11.20;;;9.70;;
9392;SDS011;4736;52.508;13.422;2024-01-30T14:40:04;13.80;;;10.27;;
9392;SDS011;4736;52.508;13.422;2024-01-30T14:43:09;11.87;;;9.80;;
9392;SDS011;4736;52.508;13.422;2024-01-30T14:46:12;11.53;;;9.57;;
9392;SDS011;4736;52.508;13.422;2024-01-30T14:49:15;13.00;;;11.70;;
9392;SDS011;4736;52.508;13.422;2024-01-30T14:52:18;12.63;;;11.33;;
9392;SDS011;4736;52.508;13.422;2024-01-30T14:55:23;12.73;;;11.43;;
9392;SDS011;4736;52.508;13.422;2024-01-30T14:58:26;12.83;;;11.53;;
9392;SDS011;4736;52.508;13.422;2024-01-30T15:01:30;12.27;;;10.33;;
9392;SDS011;4736;52.508;13.422;2024-01-30T15:04:33;23.17;;;12.10;;
9392;SDS011;4736;52.508;13.422;2024-01-30T15:07:36;16.47;;;11.27;;
9392;SDS011;4736;52.508;13.422;2024-01-30T15:10:42;18.10;;;11.77;;
9392;SDS011;4736;52.508;13.422;2024-01-30T15:13:47;12.43;;;11.33;;
9392;SDS011;4736;52.508;13.422;2024-01-30T15:16:50;13.40;;;10.97;;
9392;SDS011;4736;52.508;13.422;2024-01-30T15:19:54;12.90;;;11.60;;
9392;SDS011;4736;52.508;13.422;2024-01-30T15:22:57;13.93;;;11.83;;
9392;SDS011;4736;52.508;13.422;2024-01-30T15:26:01;14.37;;;11.63;;
9392;SDS011;4736;52.508;13.422;2024-01-30T15:29:04;14.20;;;11.57;;
9392;SDS011;4736;52.508;13.422;2024-01-30T15:32:08;12.73;;;10.60;;
9392;SDS011;4736;52.508;13.422;2024-01-30T15:35:11;12.43;;;11.17;;
9392;SDS011;4736;52.508;13.422;2024-01-30T15:38:15;11.57;;;10.47;;
9392;SDS011;4736;52.508;13.422;2024-01-30T15:41:20;18.13;;;15.30;;
9392;SDS011;4736;52.508;13.422;2024-01-30T15:44:23;22.97;;;16.40;;
9392;SDS011;4736;52.508;13.422;2024-01-30T15:47:27;11.93;;;10.73;;
9392;SDS011;4736;52.508;13.422;2024-01-30T15:50:30;13.07;;;11.30;;
9392;SDS011;4736;52.508;13.422;2024-01-30T15:53:33;11.90;;;10.60;;
9392;SDS011;4736;52.508;13.422;2024-01-30T15:56:37;13.57;;;11.20;;
9392;SDS011;4736;52.508;13.422;2024-01-30T15:59:41;13.40;;;10.97;;
9392;SDS011;4736;52.508;13.422;2024-01-30T16:02:44;12.43;;;11.17;;
9392;SDS011;4736;52.508;13.422;2024-01-30T16:05:48;11.63;;;10.53;;
9392;SDS011;4736;52.508;13.422;2024-01-30T16:08:51;13.10;;;11.80;;
9392;SDS011;4736;52.508;13.422;2024-01-30T16:11:58;15.10;;;12.20;;
9392;SDS011;4736;52.508;13.422;2024-01-30T16:15:01;15.27;;;12.47;;
9392;SDS011;4736;52.508;13.422;2024-01-30T16:18:05;13.73;;;12.10;;
9392;SDS011;4736;52.508;13.422;2024-01-30T16:21:08;12.13;;;11.00;;
9392;SDS011;4736;52.508;13.422;2024-01-30T16:24:13;14.67;;;13.17;;
9392;SDS011;4736;52.508;13.422;2024-01-30T16:27:18;15.70;;;13.00;;
9392;SDS011;4736;52.508;13.422;2024-01-30T16:30:21;14.10;;;12.77;;
9392;SDS011;4736;52.508;13.422;2024-01-30T16:33:24;15.57;;;13.37;;
9392;SDS011;4736;52.508;13.422;2024-01-30T16:36:27;16.87;;;13.53;;
9392;SDS011;4736;52.508;13.422;2024-01-30T16:39:30;15.57;;;12.67;;
9392;SDS011;4736;52.508;13.422;2024-01-30T16:42:35;13.30;;;12.07;;
9392;SDS011;4736;52.508;13.422;2024-01-30T16:45:39;16.13;;;13.40;;
9392;SDS011;4736;52.508;13.422;2024-01-30T16:48:42;15.93;;;13.53;;
9392;SDS011;4736;52.508;13.422;2024-01-30T16:51:45;16.50;;;14.23;;
9392;SDS011;4736;52.508;13.422;2024-01-30T16:54:49;18.50;;;15.33;;
9392;SDS011;4736;52.508;13.422;2024-01-30T16:57:53;17.50;;;15.57;;
9392;SDS011;4736;52.508;13.422;2024-01-30T17:00:56;18.10;;;13.97;;
9392;SDS011;4736;52.508;13.422;2024-01-30T17:04:00;16.97;;;14.33;;
9392;SDS011;4736;52.508;13.422;2024-01-30T17:07:03;20.17;;;14.43;;
9392;SDS011;4736;52.508;13.422;2024-01-30T17:10:07;18.83;;;14.80;;
9392;SDS011;4736;52.508;13.422;2024-01-30T17:13:21;16.27;;;13.33;;
9392;SDS011;4736;52.508;13.422;2024-01-30T17:16:27;14.80;;;13.40;;
9392;SDS011;4736;52.508;13.422;2024-01-30T17:19:34;19.53;;;13.83;;
9392;SDS011;4736;52.508;13.422;2024-01-30T17:22:41;14.10;;;12.70;;
9392;SDS011;4736;52.508;13.422;2024-01-30T17:25:47;16.10;;;14.17;;
9392;SDS011;4736;52.508;13.422;2024-01-30T17:28:52;15.00;;;13.50;;
9392;SDS011;4736;52.508;13.422;2024-01-30T17:31:56;15.40;;;13.60;;
9392;SDS011;4736;52.508;13.422;2024-01-30T17:34:59;15.70;;;13.97;;
9392;SDS011;4736;52.508;13.422;2024-01-30T17:38:03;16.40;;;14.03;;
9392;SDS011;4736;52.508;13.422;2024-01-30T17:41:06;16.23;;;14.30;;
9392;SDS011;4736;52.508;13.422;2024-01-30T17:44:14;22.47;;;14.73;;
9392;SDS011;4736;52.508;13.422;2024-01-30T17:47:18;17.07;;;14.43;;
9392;SDS011;4736;52.508;13.422;2024-01-30T17:50:21;15.83;;;14.23;;
9392;SDS011;4736;52.508;13.422;2024-01-30T17:53:25;24.10;;;15.77;;
9392;SDS011;4736;52.508;13.422;2024-01-30T17:56:28;20.37;;;15.00;;
9392;SDS011;4736;52.508;13.422;2024-01-30T17:59:35;16.37;;;13.77;;
9392;SDS011;4736;52.508;13.422;2024-01-30T18:02:40;15.77;;;13.03;;
9392;SDS011;4736;52.508;13.422;2024-01-30T18:05:44;14.90;;;13.17;;
9392;SDS011;4736;52.508;13.422;2024-01-30T18:08:47;17.63;;;13.87;;
9392;SDS011;4736;52.508;13.422;2024-01-30T18:11:50;13.60;;;12.30;;
9392;SDS011;4736;52.508;13.422;2024-01-30T18:14:55;15.30;;;13.50;;